Time;durP1;ratioP1;P1;durP2;ratioP2;P2;SDS_P1;SDS_P2;PMS_P1;PMS_P2;Temp;Humidity;BMP_temperature;BMP_pressure;BME280_temperature;BME280_humidity;BME280_pressure;Samples;Min_cycle;Max_cycle;Signal;HPM_P1;HPM_P2
2023/02/04 00:02:38;;;;;;;7.90;1.38;;;;;;;10.44;58.27;101653.34;10232486;28;20103;-64
2023/02/04 00:07:40;;;;;;;13.23;2.33;;;;;;;10.39;58.49;101661.00;10237816;28;20134;-65
2023/02/04 00:12:41;;;;;;;15.50;1.80;;;;;;;10.31;58.23;101648.28;10226883;28;20111;-64
2023/02/04 00:17:43;;;;;;;11.07;2.03;;;;;;;10.12;57.97;101655.31;10229772;28;20079;-63
2023/02/04 00:22:44;;;;;;;8.90;1.88;;;;;;;10.15;57.90;101648.81;10237743;28;20418;-64
2023/02/04 00:27:46;;;;;;;13.77;1.33;;;;;;;10.07;57.75;101662.09;10219377;28;20411;-62
2023/02/04 00:32:47;;;;;;;8.02;1.33;;;;;;;10.06;57.63;101673.84;10233155;28;20075;-63
2023/02/04 00:37:49;;;;;;;14.98;1.30;;;;;;;9.94;57.70;101673.09;10227508;28;20075;-64
2023/02/04 00:42:51;;;;;;;6.70;0.95;;;;;;;9.99;57.72;101675.38;10224837;28;20055;-64
2023/02/04 00:47:52;;;;;;;11.82;1.63;;;;;;;10.00;57.67;101679.75;10232341;28;20074;-64
2023/02/04 00:52:53;;;;;;;11.90;1.55;;;;;;;9.93;57.80;101677.63;10231457;28;20134;-63
2023/02/04 00:57:55;;;;;;;8.48;1.00;;;;;;;9.95;57.64;101688.22;10220458;28;20047;-64
2023/02/04 01:02:56;;;;;;;6.68;1.02;;;;;;;10.10;57.32;101680.63;10229479;28;20415;-65
2023/02/04 01:07:58;;;;;;;5.72;1.38;;;;;;;10.06;57.27;101693.47;10232678;28;20059;-64
2023/02/04 01:12:59;;;;;;;10.55;1.02;;;;;;;10.09;57.35;101701.28;10227108;28;20078;-63
2023/02/04 01:18:01;;;;;;;10.63;1.00;;;;;;;10.07;57.32;101707.75;10226639;28;20325;-63
2023/02/04 01:23:02;;;;;;;15.98;1.67;;;;;;;9.92;57.42;101713.53;10225886;28;20074;-63
2023/02/04 01:28:04;;;;;;;9.93;1.20;;;;;;;10.01;57.30;101719.94;10228062;28;20526;-65
2023/02/04 01:33:05;;;;;;;8.88;1.73;;;;;;;10.08;56.92;101728.28;10225644;28;20069;-65
2023/02/04 01:38:06;;;;;;;12.68;1.00;;;;;;;10.03;56.86;101728.69;10235361;28;20052;-62
2023/02/04 01:43:09;;;;;;;9.00;2.03;;;;;;;10.03;56.96;101738.56;10238968;28;20052;-63
2023/02/04 01:48:13;;;;;;;14.07;1.20;;;;;;;10.07;56.75;101746.25;10231631;28;20426;-65
2023/02/04 01:53:19;;;;;;;7.78;1.02;;;;;;;9.99;56.74;101748.78;10230117;28;20545;-64
2023/02/04 01:58:20;;;;;;;12.95;2.97;;;;;;;10.15;56.65;101753.59;10238128;28;20086;-62
2023/02/04 02:03:22;;;;;;;7.28;1.05;;;;;;;10.21;56.16;101765.63;10224371;28;20114;-60
2023/02/04 02:08:23;;;;;;;12.35;2.58;;;;;;;10.38;55.70;101770.34;10217485;28;20094;-60
2023/02/04 02:13:24;;;;;;;14.18;1.27;;;;;;;10.30;55.88;101770.19;10224697;28;20074;-60
2023/02/04 02:18:26;;;;;;;9.95;1.08;;;;;;;10.20;56.10;101780.06;10219701;28;20663;-60
2023/02/04 02:23:46;;;;;;;10.63;1.23;;;;;;;10.19;55.89;101772.97;10224231;28;20577;-60
2023/02/04 02:28:49;;;;;;;10.68;1.30;;;;;;;10.19;55.65;101781.91;10227149;28;20141;-61
2023/02/04 02:33:50;;;;;;;11.70;1.17;;;;;;;10.07;55.74;101781.16;10222689;28;20050;-61
2023/02/04 02:38:52;;;;;;;7.32;1.00;;;;;;;9.92;55.76;101786.06;10222770;28;20079;-61
2023/02/04 02:43:53;;;;;;;4.82;1.08;;;;;;;9.83;56.12;101792.22;10219030;28;20079;-61
2023/02/04 02:48:55;;;;;;;11.02;1.00;;;;;;;9.80;56.08;101791.69;10215993;28;20126;-61
2023/02/04 02:53:57;;;;;;;12.02;2.33;;;;;;;9.81;56.31;101804.09;10229277;28;20078;-61
2023/02/04 02:59:12;;;;;;;13.15;0.70;;;;;;;9.89;55.84;101799.78;10224309;28;20131;-61
2023/02/04 03:04:15;;;;;;;12.60;1.13;;;;;;;9.80;56.21;101800.56;10218765;28;20134;-61
2023/02/04 03:09:17;;;;;;;15.00;1.50;;;;;;;9.74;56.33;101806.50;10227835;28;20075;-61
2023/02/04 03:14:21;;;;;;;4.78;0.93;;;;;;;9.65;56.56;101812.66;10229307;28;20064;-61
2023/02/04 03:19:24;;;;;;;11.95;1.45;;;;;;;9.56;56.44;101811.63;10225639;28;20056;-60
2023/02/04 03:24:26;;;;;;;13.23;1.52;;;;;;;9.39;57.03;101821.13;10229081;28;20055;-61
2023/02/04 03:29:27;;;;;;;16.35;1.92;;;;;;;9.45;56.73;101836.69;10233323;28;20083;-61
2023/02/04 03:34:30;;;;;;;13.18;1.27;;;;;;;9.52;56.57;101834.34;10234311;28;20127;-61
2023/02/04 03:39:31;;;;;;;12.02;1.63;;;;;;;9.40;56.89;101860.41;10225318;28;20513;-60
2023/02/04 03:44:32;;;;;;;12.93;2.53;;;;;;;9.38;57.07;101862.38;10225684;28;20047;-60
2023/02/04 03:49:35;;;;;;;9.73;1.40;;;;;;;9.44;56.92;101864.53;10226036;28;20047;-61
2023/02/04 03:54:36;;;;;;;12.02;1.40;;;;;;;9.51;56.57;101864.84;10224984;28;20047;-61
2023/02/04 03:59:37;;;;;;;14.05;1.77;;;;;;;9.44;56.59;101863.66;10226884;28;20459;-60
2023/02/04 04:04:39;;;;;;;14.05;1.10;;;;;;;9.27;57.02;101870.47;10233215;28;20079;-60
2023/02/04 04:09:40;;;;;;;12.65;1.67;;;;;;;9.37;56.57;101887.50;10227020;28;20142;-61
2023/02/04 04:14:42;;;;;;;13.23;1.65;;;;;;;9.38;56.78;101889.22;10228390;28;20055;-61
2023/02/04 04:19:45;;;;;;;12.77;1.17;;;;;;;9.39;56.64;101882.00;10225232;28;20051;-61
2023/02/04 04:24:46;;;;;;;8.90;2.03;;;;;;;9.26;56.86;101885.75;10224576;28;20063;-61
2023/02/04 04:29:48;;;;;;;12.82;1.33;;;;;;;9.06;57.22;101891.91;10223278;28;20147;-61
2023/02/04 04:34:49;;;;;;;19.88;3.00;;;;;;;8.99;57.46;101885.38;10219600;28;20452;-61
2023/02/04 04:39:50;;;;;;;11.32;2.55;;;;;;;8.89;58.12;101896.84;10226274;28;20089;-60
2023/02/04 04:44:52;;;;;;;8.93;1.40;;;;;;;8.83;58.03;101881.28;10227324;28;20078;-60
2023/02/04 04:49:53;;;;;;;12.55;1.55;;;;;;;8.90;58.51;101884.28;10216930;28;20055;-59
2023/02/04 04:54:54;;;;;;;16.05;2.17;;;;;;;8.82;58.63;101887.59;10226322;28;20134;-60
2023/02/04 04:59:56;;;;;;;16.92;2.05;;;;;;;8.80;58.38;101897.59;10228446;28;20130;-60
2023/02/04 05:04:57;;;;;;;14.73;2.13;;;;;;;8.94;58.61;101904.50;10224927;28;20047;-60
2023/02/04 05:09:59;;;;;;;14.63;2.53;;;;;;;9.06;57.80;101916.94;10226860;28;20099;-60
2023/02/04 05:15:00;;;;;;;20.13;3.20;;;;;;;8.96;58.11;101923.16;10222939;28;20058;-60
2023/02/04 05:20:02;;;;;;;17.42;1.90;;;;;;;9.00;58.07;101924.59;10225496;28;20157;-60
2023/02/04 05:25:04;;;;;;;5.97;1.17;;;;;;;9.00;58.19;101917.41;10231383;28;20563;-60
2023/02/04 05:30:06;;;;;;;12.77;1.33;;;;;;;9.08;58.04;101911.41;10223465;28;20602;-61
2023/02/04 05:35:07;;;;;;;17.77;1.90;;;;;;;9.20;58.29;101926.50;10225346;28;20443;-60
2023/02/04 05:40:09;;;;;;;13.07;1.13;;;;;;;9.32;57.67;101940.69;10218728;28;20154;-61
2023/02/04 05:45:14;;;;;;;15.48;2.08;;;;;;;9.38;57.92;101942.03;10219882;28;20114;-61
2023/02/04 05:50:16;;;;;;;18.23;2.42;;;;;;;9.38;58.04;101942.03;10220124;28;20383;-60
2023/02/04 05:55:17;;;;;;;20.60;2.17;;;;;;;9.35;58.02;101945.81;10224604;28;20137;-61
2023/02/04 06:00:19;;;;;;;19.90;2.47;;;;;;;9.45;58.09;101956.63;10224182;28;20114;-61
2023/02/04 06:05:21;;;;;;;16.58;2.15;;;;;;;9.37;58.32;101962.66;10231306;28;20075;-61
2023/02/04 06:10:23;;;;;;;15.32;2.42;;;;;;;9.37;58.34;101968.00;10219637;28;20118;-61
2023/02/04 06:15:24;;;;;;;14.27;1.63;;;;;;;9.33;58.39;101980.84;10223403;28;20064;-60
2023/02/04 06:20:26;;;;;;;15.48;1.67;;;;;;;9.29;58.80;101979.38;10218839;28;20147;-61
2023/02/04 06:25:27;;;;;;;15.63;3.25;;;;;;;9.11;59.59;101978.22;10219628;28;20507;-61
2023/02/04 06:30:28;;;;;;;28.42;2.97;;;;;;;9.10;59.76;101982.75;10218163;28;20571;-61
2023/02/04 06:35:30;;;;;;;20.45;2.72;;;;;;;9.06;60.04;101986.66;10217288;28;20479;-62
2023/02/04 06:40:31;;;;;;;16.50;3.15;;;;;;;9.09;59.65;101999.81;10227332;28;20077;-61
2023/02/04 06:45:34;;;;;;;20.45;2.97;;;;;;;8.95;60.16;102005.47;10223046;28;20558;-62
2023/02/04 06:50:36;;;;;;;12.18;2.60;;;;;;;8.99;60.13;101996.19;10219803;28;20122;-61
2023/02/04 06:55:37;;;;;;;18.42;2.55;;;;;;;9.09;60.10;102001.66;10216713;28;20079;-65
2023/02/04 07:00:39;;;;;;;10.98;2.10;;;;;;;9.00;60.81;101997.03;10222370;28;20155;-65
2023/02/04 07:05:40;;;;;;;21.10;3.33;;;;;;;8.89;60.89;102001.44;10220227;28;20432;-65
2023/02/04 07:10:41;;;;;;;11.30;1.80;;;;;;;8.90;61.21;102018.38;10225771;28;20058;-65
2023/02/04 07:15:43;;;;;;;20.63;2.97;;;;;;;8.97;61.06;102024.97;10220880;28;20509;-65
2023/02/04 07:20:44;;;;;;;23.30;2.63;;;;;;;9.03;60.83;102042.38;10220521;28;20383;-65
2023/02/04 07:25:46;;;;;;;17.75;2.83;;;;;;;9.10;61.21;102048.94;10216290;28;20113;-65
2023/02/04 07:30:47;;;;;;;28.50;3.88;;;;;;;9.10;60.86;102068.59;10216447;28;20051;-65
2023/02/04 07:35:49;;;;;;;18.85;3.20;;;;;;;9.05;60.76;102065.41;10204493;28;20456;-65
2023/02/04 07:40:50;;;;;;;23.45;4.22;;;;;;;9.03;61.11;102075.41;10219998;28;20047;-64
2023/02/04 07:45:52;;;;;;;25.40;2.88;;;;;;;8.83;61.90;102078.84;10203793;28;20160;-65
2023/02/04 07:50:53;;;;;;;16.23;3.20;;;;;;;8.97;61.13;102081.28;10215620;28;20079;-65
2023/02/04 07:55:55;;;;;;;16.13;5.22;;;;;;;8.98;61.27;102087.50;10229237;28;20479;-64
2023/02/04 08:00:56;;;;;;;26.48;4.72;;;;;;;9.05;61.78;102110.19;10224272;28;20075;-65
2023/02/04 08:05:57;;;;;;;15.05;2.67;;;;;;;8.93;62.00;102103.97;10225187;28;20048;-65
2023/02/04 08:10:59;;;;;;;10.93;1.95;;;;;;;8.91;61.84;102105.91;10223700;28;20130;-65
2023/02/04 08:16:00;;;;;;;14.98;2.22;;;;;;;9.13;62.02;102115.78;10203503;28;20173;-65
2023/02/04 08:21:03;;;;;;;20.33;3.35;;;;;;;9.38;61.30;102124.53;10205844;28;20058;-65
2023/02/04 08:26:05;;;;;;;13.45;2.88;;;;;;;9.48;61.40;102133.56;10227473;28;20039;-64
2023/02/04 08:31:10;;;;;;;23.55;4.05;;;;;;;9.60;61.32;102129.03;10226715;28;20058;-65
2023/02/04 08:36:12;;;;;;;22.27;3.83;;;;;;;9.65;61.39;102129.47;10208701;28;20062;-65
2023/02/04 08:41:13;;;;;;;18.67;3.50;;;;;;;9.70;61.38;102146.94;10223242;28;20110;-65
2023/02/04 08:46:14;;;;;;;25.25;2.95;;;;;;;9.76;61.29;102155.47;10225525;28;20063;-64
2023/02/04 08:51:16;;;;;;;16.20;2.92;;;;;;;9.83;61.24;102159.34;10203909;28;20531;-66
2023/02/04 08:56:19;;;;;;;19.73;3.63;;;;;;;9.92;61.18;102161.28;10201608;28;20069;-66
2023/02/04 09:01:20;;;;;;;13.23;2.17;;;;;;;10.16;60.58;102162.91;10223787;28;20067;-67
2023/02/04 09:06:22;;;;;;;18.30;2.72;;;;;;;10.32;60.41;102164.19;10226928;28;20047;-65
2023/02/04 09:11:23;;;;;;;13.75;3.13;;;;;;;10.42;60.34;102180.38;10222978;28;20087;-65
2023/02/04 09:16:24;;;;;;;23.63;3.15;;;;;;;10.65;59.71;102189.19;10221263;28;20070;-65
2023/02/04 09:21:26;;;;;;;18.27;2.20;;;;;;;10.80;59.55;102181.66;10222636;28;20094;-65
2023/02/04 09:26:27;;;;;;;12.75;2.33;;;;;;;10.99;59.21;102188.13;10223541;28;20055;-65
2023/02/04 09:31:29;;;;;;;12.65;1.50;;;;;;;11.02;58.92;102190.53;10207334;28;20058;-65
2023/02/04 09:36:36;;;;;;;15.65;2.25;;;;;;;11.21;58.47;102192.50;10214644;28;20085;-65
2023/02/04 09:41:39;;;;;;;11.65;2.33;;;;;;;11.31;58.30;102204.16;10224259;28;20671;-65
2023/02/04 09:46:45;;;;;;;22.73;3.67;;;;;;;11.48;58.39;102205.38;10218492;28;20159;-65
2023/02/04 09:51:48;;;;;;;19.38;2.22;;;;;;;11.36;58.33;102228.00;10203220;28;20463;-64
2023/02/04 09:56:51;;;;;;;9.48;2.00;;;;;;;11.21;58.61;102240.94;10219791;28;20588;-64
2023/02/04 10:02:01;;;;;;;19.02;1.55;;;;;;;11.17;58.99;102256.50;10219516;28;20133;-65
2023/02/04 10:07:10;;;;;;;18.92;1.50;;;;;;;11.21;58.73;102259.78;10210408;28;20407;-65
2023/02/04 10:12:12;;;;;;;12.07;2.03;;;;;;;11.31;58.40;102269.66;10209259;28;20281;-64
2023/02/04 10:17:19;;;;;;;7.65;0.93;;;;;;;11.37;58.31;102273.63;10216932;28;20044;-64
2023/02/04 10:22:21;;;;;;;16.60;1.63;;;;;;;11.43;57.74;102261.47;10220724;28;20118;-64
2023/02/04 10:27:22;;;;;;;12.38;2.17;;;;;;;11.52;57.29;102266.03;10206391;28;20459;-64
2023/02/04 10:32:30;;;;;;;11.30;1.38;;;;;;;11.61;57.26;102254.47;10220720;28;20095;-65
2023/02/04 10:37:31;;;;;;;10.43;1.55;;;;;;;11.74;56.59;102259.59;10197837;28;20055;-64
2023/02/04 10:42:33;;;;;;;9.57;1.08;;;;;;;11.87;55.85;102262.06;10218433;28;20059;-65
2023/02/04 10:47:34;;;;;;;8.45;0.82;;;;;;;12.04;55.23;102272.19;10203507;28;20143;-64
2023/02/04 10:52:40;;;;;;;7.55;0.70;;;;;;;11.97;55.46;102268.38;10210987;28;20636;-65
2023/02/04 10:57:44;;;;;;;12.23;1.10;;;;;;;11.93;55.22;102268.75;10220794;28;20142;-64
2023/02/04 11:03:02;;;;;;;7.22;0.95;;;;;;;11.90;55.01;102270.75;10215870;28;20074;-64
2023/02/04 11:08:24;;;;;;;7.47;0.90;;;;;;;12.04;54.60;102268.66;10218491;28;20047;-64
2023/02/04 11:13:38;;;;;;;8.98;0.65;;;;;;;11.97;54.27;102268.38;10224016;28;20155;-64
2023/02/04 11:18:47;;;;;;;5.90;1.48;;;;;;;12.03;54.28;102269.66;10219252;28;20055;-66
2023/02/04 11:23:49;;;;;;;6.80;0.73;;;;;;;12.09;54.13;102277.19;10217385;28;20111;-64
2023/02/04 11:28:59;;;;;;;7.90;1.40;;;;;;;12.02;53.85;102259.88;10217528;28;20052;-64
2023/02/04 11:34:10;;;;;;;10.32;0.70;;;;;;;12.08;53.24;102262.88;10225486;28;20126;-64
2023/02/04 11:39:15;;;;;;;11.05;0.82;;;;;;;11.95;53.51;102267.66;10231977;28;20075;-64
2023/02/04 11:44:18;;;;;;;7.25;0.70;;;;;;;12.11;53.47;102272.53;10228645;28;20154;-64
2023/02/04 11:49:20;;;;;;;10.77;1.58;;;;;;;12.20;52.71;102278.91;10228541;28;20143;-64
2023/02/04 11:54:22;;;;;;;5.32;0.50;;;;;;;12.26;52.63;102278.34;10221738;28;20052;-64
2023/02/04 11:59:23;;;;;;;10.30;1.10;;;;;;;12.35;52.21;102271.28;10218498;28;20107;-65
2023/02/04 12:04:25;;;;;;;11.00;1.08;;;;;;;12.44;52.63;102283.91;10227729;28;20134;-65
2023/02/04 12:09:29;;;;;;;7.18;0.75;;;;;;;12.43;51.77;102280.38;10223262;28;20466;-65
2023/02/04 12:14:40;;;;;;;5.97;0.50;;;;;;;12.44;52.16;102281.22;10224061;28;20090;-64
2023/02/04 12:19:42;;;;;;;10.88;1.13;;;;;;;12.54;52.19;102275.81;10223780;28;20051;-63
2023/02/04 12:24:43;;;;;;;10.55;1.23;;;;;;;12.58;52.03;102277.25;10221345;28;20429;-64
2023/02/04 12:29:45;;;;;;;4.53;0.60;;;;;;;12.65;51.58;102281.09;10223476;28;20102;-64
2023/02/04 12:34:46;;;;;;;11.18;0.80;;;;;;;12.85;50.96;102280.06;10224565;28;20482;-65
2023/02/04 12:39:48;;;;;;;6.75;1.02;;;;;;;13.19;50.59;102276.03;10225514;28;20138;-64
2023/02/04 12:44:49;;;;;;;6.90;1.02;;;;;;;13.21;50.88;102280.34;10220271;28;20098;-64
2023/02/04 12:49:50;;;;;;;5.32;0.70;;;;;;;13.41;50.33;102289.25;10225727;28;20067;-64
2023/02/04 12:54:52;;;;;;;9.90;1.38;;;;;;;13.53;49.75;102286.38;10223315;28;20051;-64
2023/02/04 12:59:56;;;;;;;9.98;1.35;;;;;;;13.50;49.57;102290.22;10222083;28;20304;-65
2023/02/04 13:04:57;;;;;;;10.05;0.73;;;;;;;13.60;49.37;102301.00;10223030;28;20098;-64
2023/02/04 13:09:59;;;;;;;6.22;1.15;;;;;;;13.51;49.21;102286.53;10223867;28;20054;-65
2023/02/04 13:15:02;;;;;;;7.97;1.00;;;;;;;13.40;48.93;102281.28;10223653;28;20055;-64
2023/02/04 13:20:04;;;;;;;9.50;1.98;;;;;;;13.39;48.92;102276.88;10226517;28;20074;-65
2023/02/04 13:25:06;;;;;;;9.40;0.88;;;;;;;13.42;48.62;102282.00;10220874;28;20131;-64
2023/02/04 13:30:09;;;;;;;10.27;0.82;;;;;;;13.46;48.36;102283.41;10221075;28;20043;-65
2023/02/04 13:35:11;;;;;;;11.05;0.70;;;;;;;13.48;48.30;102276.00;10215122;28;20087;-65
2023/02/04 13:40:12;;;;;;;9.95;1.05;;;;;;;13.37;48.41;102276.16;10219375;28;20087;-64
2023/02/04 13:45:15;;;;;;;9.52;0.90;;;;;;;13.36;48.38;102274.50;10217920;28;20136;-64
2023/02/04 13:50:16;;;;;;;7.05;1.30;;;;;;;13.34;47.82;102266.53;10219911;28;20091;-65
2023/02/04 13:55:18;;;;;;;14.40;2.65;;;;;;;13.28;48.24;102272.47;10205456;28;20138;-65
2023/02/04 14:00:19;;;;;;;9.38;0.82;;;;;;;13.26;47.66;102272.63;10223455;28;20079;-65
2023/02/04 14:05:20;;;;;;;10.95;1.05;;;;;;;13.03;48.29;102285.63;10220754;28;20129;-65
2023/02/04 14:10:23;;;;;;;9.65;1.17;;;;;;;12.85;48.43;102285.47;10218940;28;20803;-65
2023/02/04 14:15:25;;;;;;;9.15;0.50;;;;;;;12.75;47.98;102290.03;10222626;28;20603;-65
2023/02/04 14:20:26;;;;;;;8.95;0.55;;;;;;;12.59;48.40;102285.19;10219766;28;20585;-66
2023/02/04 14:25:27;;;;;;;14.93;1.10;;;;;;;12.35;48.26;102287.47;10216746;28;20055;-64
2023/02/04 14:30:30;;;;;;;8.98;1.10;;;;;;;12.24;48.49;102297.38;10198069;28;20219;-64
2023/02/04 14:35:32;;;;;;;8.98;0.77;;;;;;;12.26;48.39;102286.44;10227153;28;20082;-65
2023/02/04 14:40:33;;;;;;;8.57;1.15;;;;;;;12.24;48.32;102281.22;10221084;28;20083;-65
2023/02/04 14:45:36;;;;;;;14.43;1.63;;;;;;;12.18;48.54;102289.81;10215674;28;20055;-65
2023/02/04 14:50:38;;;;;;;10.80;0.85;;;;;;;12.13;48.50;102292.09;10205030;28;20083;-64
2023/02/04 14:55:39;;;;;;;8.63;0.80;;;;;;;12.09;48.00;102296.91;10222446;28;20508;-65
2023/02/04 15:00:40;;;;;;;13.82;1.20;;;;;;;12.03;47.77;102297.47;10211126;28;20165;-65
2023/02/04 15:05:42;;;;;;;13.82;1.65;;;;;;;12.06;47.87;102299.03;10226809;28;20126;-65
2023/02/04 15:10:43;;;;;;;10.52;0.88;;;;;;;12.07;48.13;102295.34;10226108;28;20083;-66
2023/02/04 15:15:45;;;;;;;9.43;1.90;;;;;;;12.03;48.20;102304.72;10227878;28;20059;-65
2023/02/04 15:20:46;;;;;;;6.85;1.13;;;;;;;11.98;48.50;102302.41;10228462;28;20043;-64
2023/02/04 15:25:50;;;;;;;9.90;0.88;;;;;;;11.92;48.44;102302.13;10226915;28;20076;-65
2023/02/04 15:30:52;;;;;;;10.13;0.98;;;;;;;11.80;47.99;102301.31;10222441;28;20090;-65
2023/02/04 15:35:53;;;;;;;11.02;1.17;;;;;;;11.71;48.40;102308.41;10225374;28;20063;-65
2023/02/04 15:40:55;;;;;;;13.18;1.58;;;;;;;11.53;48.70;102313.53;10222781;28;20137;-65
2023/02/04 15:45:56;;;;;;;13.02;2.35;;;;;;;11.42;49.04;102313.63;10225665;28;20058;-64
2023/02/04 15:50:58;;;;;;;12.52;2.55;;;;;;;11.29;49.66;102319.19;10226555;28;20498;-65
2023/02/04 15:55:59;;;;;;;4.53;1.35;;;;;;;11.10;50.82;102333.41;10208359;28;20768;-65
2023/02/04 16:01:01;;;;;;;9.65;1.92;;;;;;;11.00;50.69;102343.22;10226240;28;20091;-64
2023/02/04 16:06:04;;;;;;;8.05;1.55;;;;;;;10.91;50.94;102340.31;10222638;28;20059;-65
2023/02/04 16:11:05;;;;;;;4.30;1.05;;;;;;;10.82;51.12;102348.31;10205521;28;20070;-65
2023/02/04 16:16:07;;;;;;;9.75;3.30;;;;;;;10.75;51.21;102350.66;10220743;28;20464;-65
2023/02/04 16:21:08;;;;;;;10.90;1.42;;;;;;;10.62;51.44;102349.97;10221335;28;20598;-65
2023/02/04 16:26:09;;;;;;;7.65;1.45;;;;;;;10.54;51.82;102352.44;10219300;28;20074;-61
2023/02/04 16:31:11;;;;;;;7.90;1.67;;;;;;;10.41;52.22;102364.22;10220959;28;20059;-61
2023/02/04 16:36:13;;;;;;;10.63;1.40;;;;;;;10.24;52.35;102370.91;10205576;28;20054;-60
2023/02/04 16:41:14;;;;;;;7.85;1.80;;;;;;;10.13;52.75;102373.63;10222429;28;20170;-61
2023/02/04 16:46:16;;;;;;;8.60;1.30;;;;;;;9.92;53.09;102371.66;10226668;28;20487;-61
2023/02/04 16:51:19;;;;;;;3.08;1.27;;;;;;;9.84;53.21;102374.09;10219763;28;20391;-61
2023/02/04 16:56:20;;;;;;;11.23;2.22;;;;;;;9.71;53.53;102390.31;10224523;28;20146;-61
2023/02/04 17:01:22;;;;;;;4.03;0.63;;;;;;;9.58;53.86;102381.53;10223657;28;20490;-61
2023/02/04 17:06:25;;;;;;;13.68;1.75;;;;;;;9.51;53.79;102386.50;10225585;28;20101;-60
2023/02/04 17:11:30;;;;;;;7.57;1.60;;;;;;;9.41;54.09;102388.19;10224444;28;20744;-60
2023/02/04 17:16:31;;;;;;;9.02;1.90;;;;;;;9.37;54.10;102399.28;10222027;28;20071;-59
2023/02/04 17:21:33;;;;;;;6.28;2.33;;;;;;;9.34;54.46;102395.00;10218280;28;20055;-60
2023/02/04 17:26:38;;;;;;;8.90;1.90;;;;;;;9.28;55.40;102393.66;10224994;28;20146;-60
2023/02/04 17:31:42;;;;;;;6.47;1.50;;;;;;;9.25;55.04;102395.69;10224076;28;20575;-60
2023/02/04 17:36:43;;;;;;;15.88;1.67;;;;;;;9.24;55.00;102404.72;10219313;28;20063;-61
2023/02/04 17:41:44;;;;;;;6.18;1.23;;;;;;;9.24;55.12;102404.72;10217284;28;20062;-60
2023/02/04 17:46:46;;;;;;;5.18;1.13;;;;;;;9.24;54.96;102412.75;10217985;28;20100;-61
2023/02/04 17:51:47;;;;;;;6.45;1.60;;;;;;;9.19;54.87;102414.94;10210837;28;20051;-61
2023/02/04 17:56:49;;;;;;;4.97;0.60;;;;;;;9.16;55.13;102417.84;10220803;28;20146;-61
2023/02/04 18:01:50;;;;;;;4.32;1.17;;;;;;;9.14;55.06;102428.69;10216396;28;20082;-60
2023/02/04 18:06:52;;;;;;;3.72;1.00;;;;;;;9.08;55.04;102424.66;10215681;28;20562;-61
2023/02/04 18:11:53;;;;;;;8.23;0.98;;;;;;;9.05;54.50;102419.53;10216720;28;20467;-61
2023/02/04 18:16:57;;;;;;;8.00;1.90;;;;;;;9.05;54.27;102427.56;10220189;28;20082;-61
2023/02/04 18:21:58;;;;;;;6.32;2.05;;;;;;;9.06;54.38;102431.09;10217233;28;20407;-62
2023/02/04 18:27:10;;;;;;;10.63;3.20;;;;;;;9.05;54.09;102426.72;10223505;28;20131;-62
2023/02/04 18:32:19;;;;;;;10.93;4.15;;;;;;;9.04;54.65;102435.72;10212684;28;20039;-59
2023/02/04 18:37:34;;;;;;;7.72;2.10;;;;;;;8.97;54.24;102432.66;10203250;28;20488;-59
2023/02/04 18:42:42;;;;;;;7.55;1.50;;;;;;;8.77;54.93;102435.94;10217459;28;20082;-59
2023/02/04 18:47:44;;;;;;;5.25;1.45;;;;;;;8.80;54.30;102436.56;10221679;28;20126;-60
2023/02/04 18:52:45;;;;;;;9.88;1.75;;;;;;;8.82;54.12;102426.59;10218477;28;20143;-60
2023/02/04 18:57:47;;;;;;;6.47;2.55;;;;;;;8.83;53.67;102425.63;10218326;28;20588;-60
2023/02/04 19:02:55;;;;;;;17.63;7.65;;;;;;;8.85;54.37;102429.06;10214172;28;20484;-60
2023/02/04 19:08:42;;;;;;;17.67;8.02;;;;;;;8.82;54.15;102425.75;10216850;28;20048;-60
2023/02/04 19:13:44;;;;;;;21.13;8.63;;;;;;;8.73;54.69;102424.59;10212666;28;20146;-60
2023/02/04 19:18:45;;;;;;;5.60;2.00;;;;;;;8.58;54.63;102431.06;10215278;28;20099;-60
2023/02/04 19:23:49;;;;;;;7.55;3.03;;;;;;;8.64;54.55;102428.78;10216931;28;20093;-62
2023/02/04 19:28:51;;;;;;;10.23;2.42;;;;;;;8.68;54.66;102432.13;10217762;28;20051;-59
2023/02/04 19:33:54;;;;;;;8.18;3.00;;;;;;;8.73;54.79;102435.31;10218580;28;20132;-59
2023/02/04 19:38:59;;;;;;;12.43;5.97;;;;;;;8.72;54.74;102418.34;10222029;28;20487;-61
2023/02/04 19:44:13;;;;;;;17.33;7.00;;;;;;;8.71;54.49;102431.91;10218505;28;20083;-61
2023/02/04 19:49:24;;;;;;;9.95;3.92;;;;;;;8.72;54.88;102439.81;10217532;28;20067;-60
2023/02/04 19:54:38;;;;;;;12.90;5.55;;;;;;;8.74;54.39;102445.06;10225206;28;20141;-60
2023/02/04 19:59:39;;;;;;;7.88;3.10;;;;;;;8.77;54.57;102452.91;10218032;28;20522;-61
2023/02/04 20:04:44;;;;;;;6.57;1.80;;;;;;;8.73;54.84;102454.09;10224141;28;20244;-60
2023/02/04 20:09:45;;;;;;;9.25;2.50;;;;;;;8.71;54.72;102453.34;10226968;28;20107;-61
2023/02/04 20:14:48;;;;;;;6.93;2.35;;;;;;;8.69;54.41;102445.41;10220927;28;20178;-60
2023/02/04 20:19:50;;;;;;;9.23;2.90;;;;;;;8.67;54.43;102452.72;10226942;28;20075;-61
2023/02/04 20:25:17;;;;;;;3.95;1.60;;;;;;;8.70;54.87;102457.84;10229095;28;20150;-61
2023/02/04 20:30:24;;;;;;;5.70;1.70;;;;;;;8.73;54.71;102472.88;10217434;28;20143;-61
2023/02/04 20:35:30;;;;;;;6.47;3.10;;;;;;;8.72;54.40;102477.34;10225855;28;20093;-60
2023/02/04 20:40:35;;;;;;;3.75;2.20;;;;;;;8.69;54.07;102477.59;10221419;28;20083;-60
2023/02/04 20:45:43;;;;;;;7.80;2.17;;;;;;;8.63;54.57;102467.31;10221263;28;20139;-60
2023/02/04 20:50:50;;;;;;;7.25;2.63;;;;;;;8.68;54.11;102475.00;10225248;28;20122;-61
2023/02/04 20:56:02;;;;;;;4.22;2.38;;;;;;;8.68;54.13;102475.00;10220411;28;20055;-61
2023/02/04 21:01:26;;;;;;;7.32;2.80;;;;;;;8.64;53.99;102473.53;10217668;28;20699;-60
2023/02/04 21:06:30;;;;;;;7.03;2.72;;;;;;;8.62;53.99;102472.78;10225044;28;20070;-61
2023/02/04 21:11:32;;;;;;;5.00;2.35;;;;;;;8.61;54.19;102473.72;10229212;28;20052;-62
2023/02/04 21:16:33;;;;;;;5.85;3.22;;;;;;;8.58;54.04;102473.97;10219925;28;20148;-60
2023/02/04 21:21:35;;;;;;;10.05;2.97;;;;;;;8.50;54.74;102475.38;10226575;28;20047;-61
2023/02/04 21:26:36;;;;;;;7.88;2.70;;;;;;;8.48;54.52;102484.50;10226022;28;20110;-62
2023/02/04 21:31:38;;;;;;;8.80;2.33;;;;;;;8.44;55.22;102481.16;10225390;28;20122;-59
2023/02/04 21:36:39;;;;;;;5.30;1.98;;;;;;;8.40;55.17;102482.31;10221549;28;20043;-60
2023/02/04 21:41:41;;;;;;;6.30;2.53;;;;;;;8.32;55.18;102482.00;10211890;28;20138;-60
2023/02/04 21:46:42;;;;;;;10.93;3.83;;;;;;;8.27;55.46;102485.03;10221250;28;20071;-59
2023/02/04 21:51:44;;;;;;;7.95;2.80;;;;;;;8.26;55.54;102475.25;10205144;28;20058;-60
2023/02/04 21:56:45;;;;;;;8.93;2.47;;;;;;;8.25;55.88;102480.72;10220438;28;20139;-61
2023/02/04 22:01:46;;;;;;;9.95;2.58;;;;;;;8.24;55.70;102476.34;10221966;28;20459;-61
2023/02/04 22:06:48;;;;;;;4.32;1.70;;;;;;;8.23;55.84;102479.97;10221157;28;20147;-61
2023/02/04 22:11:49;;;;;;;5.30;2.33;;;;;;;8.23;55.67;102488.00;10221859;28;20075;-61
2023/02/04 22:16:50;;;;;;;7.22;2.70;;;;;;;8.25;56.29;102483.41;10219092;28;20082;-61
2023/02/04 22:21:51;;;;;;;6.53;2.22;;;;;;;8.22;56.09;102478.28;10218709;28;20491;-61
2023/02/04 22:26:53;;;;;;;5.80;2.42;;;;;;;8.20;56.08;102477.53;10219005;28;20141;-61
2023/02/04 22:31:55;;;;;;;6.13;2.22;;;;;;;8.14;56.43;102468.09;10219495;28;20138;-61
2023/02/04 22:36:56;;;;;;;6.65;2.83;;;;;;;8.13;56.43;102474.41;10220904;28;20134;-60
2023/02/04 22:41:57;;;;;;;9.20;3.20;;;;;;;8.09;55.80;102470.22;10214716;28;20046;-60
2023/02/04 22:46:59;;;;;;;7.20;2.65;;;;;;;8.04;56.48;102469.72;10224599;28;20176;-62
2023/02/04 22:52:02;;;;;;;8.90;3.25;;;;;;;7.95;55.96;102465.84;10216584;28;20051;-62
2023/02/04 22:57:03;;;;;;;10.25;4.10;;;;;;;7.86;56.15;102472.69;10220409;28;20123;-63
2023/02/04 23:02:04;;;;;;;7.80;3.65;;;;;;;7.79;56.22;102470.53;10219495;28;20102;-62
2023/02/04 23:07:07;;;;;;;10.20;3.85;;;;;;;7.68;56.26;102469.47;10218832;28;20061;-61
2023/02/04 23:12:11;;;;;;;7.35;3.65;;;;;;;7.52;56.59;102464.28;10218053;28;20102;-62